Aviation Digital Data Service (ADDS)

Output produced by METARs form (0324 UTC 23 June 2017)
found at http://aviationweather.gov/adds/metars/
 
KPHX 230256Z 2303/2324 28008KT P6SM SKC 
     FM231100 11005KT P6SM FEW250 
     FM231700 27008KT P6SM FEW250